Portada
METAR-TAF:

METAR-TAF

Aeropuertos :

Aeropuerto Ejecutivo Gatineau-Ottawa

Gatineau, Quebec, Canadá

latitud: 45-31N, longitud: 075-34W, altitud: 64 m

Observación

El informe se hizo hace 23 minutos, a las 01:00 UTC
Viento 6 kt del este-noreste
Temperatura 24°C
Humedad 54%
Presión 1016 hPa
Visibilidad: 24.1 km
Nubes dispersas a una altura de 10000 ft
Cielo nuboso a una altura de 23000 ft

METAR: CYND 220100Z 06006KT 15SM SCT100 BKN230 24/14 A2999 RMK AC3CI2 LAST STFD OBS/NEXT 221100 UTC SLP157 DENSITY ALT 1300FT

Hora: 21:23 (01:23 UTC)

Pronóstico

El informe se hizo hace 7 horas y 43 minutos, a las 17:40 UTC
Pronóstico válido del 21 a las 18 UTC al 22 a las 01 UTC
Viento 8 kt del este-sureste
Visibilidad: 10 km
Escasas nubes a una altura de 5000 ft
Cielo nuboso a una altura de 25000 ft

TAF: CYND 211740Z 2118/2201 11008KT P6SM FEW050 BKN250 RMK NXT FCST WILL BE ISSUED AT 221245Z

Observaciones y pronósticos meteorológicos de más de 4000 aeropuertos (mensajes METAR y TAF).

Los puntos amarillos y rojos representan las estaciones disponibles.

Ponga el ratón en el punto deseado para ver el nombre de la estación.

Haga clic para ver las observaciones y los pronósticos meteorológicos.

Para cambiar el mapa : haga clic en los botones verdes con una cruz de color negro para hacer un zoom, en el botón verde con un guión para alejar o en las flechas verdes para mapas adyacentes.


METAR-TAF: